Time,TemperatureF,DewpointF,PressureIn,WindDirection,WindDirectionDegrees,WindSpeedMPH,WindSpeedGustMPH,Humidity,HourlyPrecipIn,Conditions,Clouds,dailyrainin,SoftwareType,DateUTC
2013-01-02 00:03:00,20.5,18.3,28.73,NNW,338,0.0,0.0,91,0.00,,---,0.00,VWS V14.01,2013-01-02 08:03:00,
2013-01-02 00:08:00,20.5,18.3,28.73,NNW,338,0.0,0.0,91,0.00,,---,0.00,VWS V14.01,2013-01-02 08:08:00,
2013-01-02 00:13:00,20.5,18.3,28.73,NNW,338,0.0,0.0,91,0.00,,---,0.00,VWS V14.01,2013-01-02 08:13:00,
2013-01-02 00:18:00,20.5,18.3,28.73,NNW,338,0.0,0.0,91,0.00,,---,0.00,VWS V14.01,2013-01-02 08:18:00,
2013-01-02 00:23:00,20.5,18.3,28.73,NNW,338,0.0,0.0,91,0.00,,---,0.00,VWS V14.01,2013-01-02 08:23:00,
2013-01-02 00:28:00,20.3,18.1,28.73,NNW,338,0.0,0.0,91,0.00,,---,0.00,VWS V14.01,2013-01-02 08:28:00,
2013-01-02 00:33:00,20.3,18.1,28.73,NNW,338,0.0,0.0,91,0.00,,---,0.00,VWS V14.01,2013-01-02 08:33:00,
2013-01-02 00:38:00,20.3,18.1,28.73,NNW,338,0.0,0.0,91,0.00,,---,0.00,VWS V14.01,2013-01-02 08:38:00,
2013-01-02 00:43:00,20.3,18.1,28.73,NNW,338,0.0,0.0,91,0.00,,---,0.00,VWS V14.01,2013-01-02 08:43:00,
2013-01-02 00:48:00,20.3,18.1,28.73,NNW,338,0.0,0.0,91,0.00,,---,0.00,VWS V14.01,2013-01-02 08:48:00,
2013-01-02 00:53:00,20.3,18.1,28.73,NNW,338,0.0,0.0,91,0.00,,---,0.00,VWS V14.01,2013-01-02 08:53:00,
2013-01-02 00:58:00,20.3,18.1,28.70,NNW,338,0.0,0.0,91,0.00,,---,0.00,VWS V14.01,2013-01-02 08:58:00,
2013-01-02 01:03:00,20.5,18.3,28.70,NNW,338,0.0,0.0,91,0.00,,---,0.00,VWS V14.01,2013-01-02 09:03:00,
2013-01-02 01:08:00,20.3,18.1,28.70,NNW,338,0.0,0.0,91,0.00,,---,0.00,VWS V14.01,2013-01-02 09:08:00,
2013-01-02 01:14:00,20.5,18.3,28.70,NNW,338,0.0,0.0,91,0.00,,---,0.00,VWS V14.01,2013-01-02 09:14:00,
2013-01-02 01:19:00,20.5,18.3,28.70,NNW,338,0.0,0.0,91,0.00,,---,0.00,VWS V14.01,2013-01-02 09:19:00,
2013-01-02 01:24:00,20.5,18.3,28.70,NNW,338,0.0,0.0,91,0.00,,---,0.00,VWS V14.01,2013-01-02 09:24:00,
2013-01-02 01:29:00,20.5,18.3,28.73,NNW,338,0.0,0.0,91,0.00,,---,0.00,VWS V14.01,2013-01-02 09:29:00,
2013-01-02 01:34:00,20.5,18.0,28.73,NNW,338,0.0,0.0,90,0.00,,---,0.00,VWS V14.01,2013-01-02 09:34:00,
2013-01-02 01:39:00,20.3,17.8,28.73,NNW,338,0.0,0.0,90,0.00,,---,0.00,VWS V14.01,2013-01-02 09:39:00,
2013-01-02 01:44:00,20.3,17.8,28.70,NNW,338,0.0,0.0,90,0.00,,---,0.00,VWS V14.01,2013-01-02 09:44:00,
2013-01-02 01:49:00,20.3,17.8,28.70,NNW,338,0.0,0.0,90,0.00,,---,0.00,VWS V14.01,2013-01-02 09:49:00,
2013-01-02 01:54:00,20.3,17.8,28.70,NNW,338,0.0,0.0,90,0.00,,---,0.00,VWS V14.01,2013-01-02 09:54:00,
2013-01-02 01:59:00,20.3,17.8,28.73,NNW,338,0.0,0.0,90,0.00,,---,0.00,VWS V14.01,2013-01-02 09:59:00,
2013-01-02 02:04:00,20.1,17.7,28.73,NNW,338,0.0,0.0,90,0.00,,---,0.00,VWS V14.01,2013-01-02 10:04:00,
2013-01-02 02:09:00,20.1,17.7,28.73,NNW,338,0.0,0.0,90,0.00,,---,0.00,VWS V14.01,2013-01-02 10:09:00,
2013-01-02 02:14:00,20.1,17.7,28.73,NNW,338,0.0,0.0,90,0.00,,---,0.00,VWS V14.01,2013-01-02 10:14:00,
2013-01-02 02:19:00,20.1,17.7,28.73,NNW,338,0.0,0.0,90,0.00,,---,0.00,VWS V14.01,2013-01-02 10:19:00,
2013-01-02 02:24:00,20.1,17.7,28.73,NNW,338,0.0,0.0,90,0.00,,---,0.00,VWS V14.01,2013-01-02 10:24:00,
2013-01-02 02:29:00,19.9,17.5,28.73,NNW,338,0.0,0.0,90,0.00,,---,0.00,VWS V14.01,2013-01-02 10:29:00,
2013-01-02 02:34:00,20.1,17.7,28.73,NNW,338,0.0,0.0,90,0.00,,---,0.00,VWS V14.01,2013-01-02 10:34:00,
2013-01-02 02:39:00,20.1,17.7,28.73,NNW,338,0.0,0.0,90,0.00,,---,0.00,VWS V14.01,2013-01-02 10:39:00,
2013-01-02 02:44:00,20.1,17.7,28.73,NNW,338,0.0,0.0,90,0.00,,---,0.00,VWS V14.01,2013-01-02 10:44:00,
2013-01-02 02:49:00,20.1,17.7,28.73,NNW,338,0.0,0.0,90,0.00,,---,0.00,VWS V14.01,2013-01-02 10:49:00,
2013-01-02 02:54:00,20.1,17.7,28.73,NNW,338,0.0,0.0,90,0.00,,---,0.00,VWS V14.01,2013-01-02 10:54:00,
2013-01-02 02:59:00,20.1,17.7,28.73,NNW,338,0.0,0.0,90,0.00,,---,0.00,VWS V14.01,2013-01-02 10:59:00,
2013-01-02 03:04:00,20.1,17.7,28.73,NNW,338,0.0,0.0,90,0.00,,---,0.00,VWS V14.01,2013-01-02 11:04:00,
2013-01-02 03:09:00,20.1,17.7,28.73,NNW,338,0.0,0.0,90,0.00,,---,0.00,VWS V14.01,2013-01-02 11:09:00,
2013-01-02 03:14:00,20.1,17.7,28.73,NNW,338,0.0,0.0,90,0.00,,---,0.00,VWS V14.01,2013-01-02 11:14:00,
2013-01-02 03:19:00,20.1,17.7,28.73,NNW,338,0.0,0.0,90,0.00,,---,0.00,VWS V14.01,2013-01-02 11:19:00,
2013-01-02 03:24:00,20.1,17.7,28.73,NNW,338,0.0,0.0,90,0.00,,---,0.00,VWS V14.01,2013-01-02 11:24:00,
2013-01-02 03:29:00,20.1,17.7,28.73,NNW,338,0.0,0.0,90,0.00,,---,0.00,VWS V14.01,2013-01-02 11:29:00,
2013-01-02 03:34:00,19.9,17.5,28.73,NNW,338,0.0,0.0,90,0.00,,---,0.00,VWS V14.01,2013-01-02 11:34:00,
2013-01-02 03:39:00,19.9,17.5,28.73,NNW,338,0.0,0.0,90,0.00,,---,0.00,VWS V14.01,2013-01-02 11:39:00,
2013-01-02 03:44:00,19.9,17.5,28.73,NNW,338,0.0,0.0,90,0.00,,---,0.00,VWS V14.01,2013-01-02 11:44:00,
2013-01-02 03:49:00,19.8,17.0,28.73,NNW,338,0.0,0.0,89,0.00,,---,0.00,VWS V14.01,2013-01-02 11:49:00,
2013-01-02 03:54:00,19.8,17.0,28.73,NNW,338,0.0,0.0,89,0.00,,---,0.00,VWS V14.01,2013-01-02 11:54:00,
2013-01-02 03:59:00,19.8,17.0,28.73,NNW,338,0.0,0.0,89,0.00,,---,0.00,VWS V14.01,2013-01-02 11:59:00,
2013-01-02 04:04:00,19.8,17.0,28.73,NNW,338,0.0,0.0,89,0.00,,---,0.00,VWS V14.01,2013-01-02 12:04:00,
2013-01-02 04:09:00,19.6,16.9,28.73,NNW,338,0.0,0.0,89,0.00,,---,0.00,VWS V14.01,2013-01-02 12:09:00,
2013-01-02 04:14:00,19.6,16.9,28.73,NNW,338,0.0,0.0,89,0.00,,---,0.00,VWS V14.01,2013-01-02 12:14:00,
2013-01-02 04:19:00,19.4,16.7,28.73,NNW,338,0.0,0.0,89,0.00,,---,0.00,VWS V14.01,2013-01-02 12:19:00,
2013-01-02 04:24:00,19.4,16.7,28.73,NNW,338,0.0,0.0,89,0.00,,---,0.00,VWS V14.01,2013-01-02 12:24:00,
2013-01-02 04:29:00,19.4,16.7,28.73,NNW,338,0.0,0.0,89,0.00,,---,0.00,VWS V14.01,2013-01-02 12:29:00,
2013-01-02 04:34:00,19.4,16.7,28.73,NNW,338,0.0,0.0,89,0.00,,---,0.00,VWS V14.01,2013-01-02 12:34:00,
2013-01-02 04:39:00,19.4,16.7,28.73,NNW,338,0.0,0.0,89,0.00,,---,0.00,VWS V14.01,2013-01-02 12:39:00,
2013-01-02 04:44:00,19.2,16.5,28.70,NNW,338,0.0,0.0,89,0.00,,---,0.00,VWS V14.01,2013-01-02 12:44:00,
2013-01-02 04:49:00,19.2,16.5,28.70,NNW,338,0.0,0.0,89,0.00,,---,0.00,VWS V14.01,2013-01-02 12:49:00,
2013-01-02 04:54:00,19.2,16.5,28.70,NNW,338,0.0,0.0,89,0.00,,---,0.00,VWS V14.01,2013-01-02 12:54:00,
2013-01-02 04:59:00,19.2,16.5,28.70,NNW,338,0.0,0.0,89,0.00,,---,0.00,VWS V14.01,2013-01-02 12:59:00,
2013-01-02 05:05:00,19.2,16.5,28.70,NNW,338,0.0,0.0,89,0.00,,---,0.00,VWS V14.01,2013-01-02 13:05:00,
2013-01-02 05:10:00,19.2,16.5,28.70,NNW,338,0.0,0.0,89,0.00,,---,0.00,VWS V14.01,2013-01-02 13:10:00,
2013-01-02 05:15:00,19.2,16.5,28.70,NNW,338,0.0,0.0,89,0.00,,---,0.00,VWS V14.01,2013-01-02 13:15:00,
2013-01-02 05:20:00,19.0,16.3,28.70,NNW,338,0.0,0.0,89,0.00,,---,0.00,VWS V14.01,2013-01-02 13:20:00,
2013-01-02 05:25:00,19.2,16.5,28.70,NNW,338,0.0,0.0,89,0.00,,---,0.00,VWS V14.01,2013-01-02 13:25:00,
2013-01-02 05:30:00,19.2,16.5,28.70,NNW,338,0.0,0.0,89,0.00,,---,0.00,VWS V14.01,2013-01-02 13:30:00,
2013-01-02 05:35:00,19.0,16.3,28.70,NNW,338,0.0,0.0,89,0.00,,---,0.00,VWS V14.01,2013-01-02 13:35:00,
2013-01-02 05:40:00,19.0,16.3,28.70,NNW,338,0.0,0.0,89,0.00,,---,0.00,VWS V14.01,2013-01-02 13:40:00,
2013-01-02 05:45:00,19.0,16.3,28.70,NNW,338,0.0,0.0,89,0.00,,---,0.00,VWS V14.01,2013-01-02 13:45:00,
2013-01-02 05:50:00,19.0,16.3,28.70,NNW,338,0.0,0.0,89,0.00,,---,0.00,VWS V14.01,2013-01-02 13:50:00,
2013-01-02 05:55:00,19.0,16.3,28.70,NNW,338,0.0,0.0,89,0.00,,---,0.00,VWS V14.01,2013-01-02 13:55:00,
2013-01-02 06:00:00,18.9,16.2,28.70,NNW,338,0.0,0.0,89,0.00,,---,0.00,VWS V14.01,2013-01-02 14:00:00,
2013-01-02 06:05:00,19.0,16.3,28.70,NNW,338,0.0,0.0,89,0.00,,---,0.00,VWS V14.01,2013-01-02 14:05:00,
2013-01-02 06:10:00,19.0,16.3,28.70,NNW,338,0.0,0.0,89,0.00,,---,0.00,VWS V14.01,2013-01-02 14:10:00,
2013-01-02 06:15:00,18.9,16.2,28.70,NNW,338,0.0,0.0,89,0.00,,---,0.00,VWS V14.01,2013-01-02 14:15:00,
2013-01-02 06:20:00,18.9,16.2,28.70,NNW,338,0.0,0.0,89,0.00,,---,0.00,VWS V14.01,2013-01-02 14:20:00,
2013-01-02 06:25:00,18.9,16.2,28.70,NNW,338,0.0,0.0,89,0.00,,---,0.00,VWS V14.01,2013-01-02 14:25:00,
2013-01-02 06:30:00,18.7,16.0,28.73,NNW,338,0.0,0.0,89,0.00,,---,0.00,VWS V14.01,2013-01-02 14:30:00,
2013-01-02 06:35:00,18.7,16.0,28.73,NNW,338,0.0,0.0,89,0.00,,---,0.00,VWS V14.01,2013-01-02 14:35:00,
2013-01-02 06:40:00,18.7,16.0,28.73,NNW,338,0.0,0.0,89,0.00,,---,0.00,VWS V14.01,2013-01-02 14:40:00,
2013-01-02 06:45:00,18.7,16.0,28.70,NNW,338,0.0,0.0,89,0.00,,---,0.00,VWS V14.01,2013-01-02 14:45:00,
2013-01-02 06:50:00,18.7,16.0,28.70,NNW,338,0.0,0.0,89,0.00,,---,0.00,VWS V14.01,2013-01-02 14:50:00,
2013-01-02 06:55:00,18.7,15.7,28.70,NNW,338,0.0,0.0,88,0.00,,---,0.00,VWS V14.01,2013-01-02 14:55:00,
2013-01-02 07:00:00,18.7,15.7,28.70,NNW,338,0.0,0.0,88,0.00,,---,0.00,VWS V14.01,2013-01-02 15:00:00,
2013-01-02 07:05:00,18.7,15.7,28.70,NNW,338,0.0,0.0,88,0.00,,---,0.00,VWS V14.01,2013-01-02 15:05:00,
2013-01-02 07:10:00,18.7,15.7,28.70,NNW,338,0.0,0.0,88,0.00,,---,0.00,VWS V14.01,2013-01-02 15:10:00,
2013-01-02 07:15:00,18.7,15.7,28.70,NNW,338,0.0,0.0,88,0.00,,---,0.00,VWS V14.01,2013-01-02 15:15:00,
2013-01-02 07:20:00,18.7,15.7,28.70,NNW,338,0.0,0.0,88,0.00,,---,0.00,VWS V14.01,2013-01-02 15:20:00,
2013-01-02 07:25:00,18.9,15.6,28.70,NNW,338,0.0,0.0,87,0.00,,---,0.00,VWS V14.01,2013-01-02 15:25:00,
2013-01-02 07:30:00,18.7,15.2,28.70,NNW,338,0.0,0.0,86,0.00,,---,0.00,VWS V14.01,2013-01-02 15:30:00,
2013-01-02 07:35:00,18.7,15.2,28.70,NNW,338,0.0,0.0,86,0.00,,---,0.00,VWS V14.01,2013-01-02 15:35:00,
2013-01-02 07:40:00,18.7,15.2,28.70,NNW,338,0.0,0.0,86,0.00,,---,0.00,VWS V14.01,2013-01-02 15:40:00,
2013-01-02 07:45:00,18.7,14.9,28.70,NNW,338,0.0,0.0,85,0.00,,---,0.00,VWS V14.01,2013-01-02 15:45:00,
2013-01-02 07:50:00,18.7,14.7,28.70,NE,45,0.0,0.0,84,0.00,,---,0.00,VWS V14.01,2013-01-02 15:50:00,
2013-01-02 07:55:00,18.9,14.3,28.70,ENE,68,0.0,0.0,82,0.00,,---,0.00,VWS V14.01,2013-01-02 15:55:00,
2013-01-02 08:00:00,18.9,14.3,28.70,NE,45,0.0,0.0,82,0.00,,---,0.00,VWS V14.01,2013-01-02 16:00:00,
2013-01-02 08:05:00,18.9,14.6,28.70,ENE,68,0.0,0.0,83,0.00,,---,0.00,VWS V14.01,2013-01-02 16:05:00,
2013-01-02 08:10:00,19.0,14.7,28.70,NE,45,0.0,0.0,83,0.00,,---,0.00,VWS V14.01,2013-01-02 16:10:00,
2013-01-02 08:15:00,19.0,14.7,28.70,ESE,112,0.0,0.0,83,0.00,,---,0.00,VWS V14.01,2013-01-02 16:15:00,
2013-01-02 08:20:00,19.0,14.7,28.70,SSE,158,0.0,0.0,83,0.00,,---,0.00,VWS V14.01,2013-01-02 16:20:00,
2013-01-02 08:26:00,19.0,15.0,28.70,SSE,158,0.0,0.0,84,0.00,,---,0.00,VWS V14.01,2013-01-02 16:26:00,
2013-01-02 08:31:00,19.2,15.5,28.70,SSE,158,0.0,0.0,85,0.00,,---,0.00,VWS V14.01,2013-01-02 16:31:00,
2013-01-02 08:36:00,19.2,15.5,28.70,SSE,158,0.0,0.0,85,0.00,,---,0.00,VWS V14.01,2013-01-02 16:36:00,
2013-01-02 08:41:00,19.4,15.6,28.70,SSE,158,0.0,0.0,85,0.00,,---,0.00,VWS V14.01,2013-01-02 16:41:00,
2013-01-02 08:46:00,19.4,15.6,28.70,SSE,158,0.0,0.0,85,0.00,,---,0.00,VWS V14.01,2013-01-02 16:46:00,
2013-01-02 08:51:00,19.6,15.8,28.70,SSE,158,0.0,0.0,85,0.00,,---,0.00,VWS V14.01,2013-01-02 16:51:00,
2013-01-02 08:56:00,19.8,16.0,28.70,SSE,158,0.0,0.0,85,0.00,,---,0.00,VWS V14.01,2013-01-02 16:56:00,
2013-01-02 09:01:00,19.9,16.2,28.70,SSE,158,0.0,0.0,85,0.00,,---,0.00,VWS V14.01,2013-01-02 17:01:00,
2013-01-02 09:06:00,20.3,16.5,28.70,SSE,158,0.0,0.0,85,0.00,,---,0.00,VWS V14.01,2013-01-02 17:06:00,
2013-01-02 09:11:00,20.3,16.5,28.70,SSE,158,0.0,0.0,85,0.00,,---,0.00,VWS V14.01,2013-01-02 17:11:00,
2013-01-02 09:16:00,20.5,16.7,28.73,SSE,158,0.0,0.0,85,0.00,,---,0.00,VWS V14.01,2013-01-02 17:16:00,
2013-01-02 09:21:00,20.7,16.9,28.73,SSE,158,0.0,0.0,85,0.00,,---,0.00,VWS V14.01,2013-01-02 17:21:00,
2013-01-02 09:26:00,20.7,16.6,28.73,SSE,158,0.0,0.0,84,0.00,,---,0.00,VWS V14.01,2013-01-02 17:26:00,
2013-01-02 09:31:00,21.0,17.0,28.73,SSE,158,0.0,0.0,84,0.00,,---,0.00,VWS V14.01,2013-01-02 17:31:00,
2013-01-02 09:36:00,21.4,17.0,28.73,SSE,158,0.0,0.0,83,0.00,,---,0.00,VWS V14.01,2013-01-02 17:36:00,
2013-01-02 09:41:00,21.6,17.2,28.73,SSE,158,0.0,0.0,83,0.00,,---,0.00,VWS V14.01,2013-01-02 17:41:00,
2013-01-02 09:46:00,21.9,17.3,28.73,SSE,158,0.0,0.0,82,0.00,,---,0.00,VWS V14.01,2013-01-02 17:46:00,
2013-01-02 09:51:00,21.9,17.3,28.73,SSE,158,0.0,0.0,82,0.00,,---,0.00,VWS V14.01,2013-01-02 17:51:00,
2013-01-02 09:56:00,22.3,17.6,28.73,South,180,0.0,0.0,82,0.00,,---,0.00,VWS V14.01,2013-01-02 17:56:00,
2013-01-02 10:01:00,22.6,17.7,28.73,SW,225,0.0,0.0,81,0.00,,---,0.00,VWS V14.01,2013-01-02 18:01:00,
2013-01-02 10:06:00,22.6,17.7,28.73,SW,225,0.0,0.0,81,0.00,,---,0.00,VWS V14.01,2013-01-02 18:06:00,
2013-01-02 10:11:00,22.6,17.4,28.73,SE,135,0.0,0.0,80,0.00,,---,0.00,VWS V14.01,2013-01-02 18:11:00,
2013-01-02 10:16:00,23.0,17.5,28.73,SSE,158,0.0,0.0,79,0.00,,---,0.00,VWS V14.01,2013-01-02 18:16:00,
2013-01-02 10:21:00,23.2,17.6,28.73,ESE,112,0.0,0.0,79,0.00,,---,0.00,VWS V14.01,2013-01-02 18:21:00,
2013-01-02 10:26:00,23.4,17.8,28.73,ESE,112,0.0,0.0,79,0.00,,---,0.00,VWS V14.01,2013-01-02 18:26:00,
2013-01-02 10:31:00,23.4,16.6,28.73,ENE,68,0.0,0.0,75,0.00,,---,0.00,VWS V14.01,2013-01-02 18:31:00,
2013-01-02 10:36:00,23.9,17.5,28.73,East,90,0.0,0.0,76,0.00,,---,0.00,VWS V14.01,2013-01-02 18:36:00,
2013-01-02 10:41:00,24.3,17.8,28.73,East,90,0.0,0.0,76,0.00,,---,0.00,VWS V14.01,2013-01-02 18:41:00,
2013-01-02 10:46:00,24.3,17.8,28.73,SSE,158,0.0,0.0,76,0.00,,---,0.00,VWS V14.01,2013-01-02 18:46:00,
2013-01-02 10:51:00,24.4,18.0,28.73,SE,135,0.0,0.0,76,0.00,,---,0.00,VWS V14.01,2013-01-02 18:51:00,
2013-01-02 10:56:00,24.3,17.5,28.73,ESE,112,0.0,0.0,75,0.00,,---,0.00,VWS V14.01,2013-01-02 18:56:00,
2013-01-02 11:01:00,24.6,17.8,28.73,ESE,112,0.0,0.0,75,0.00,,---,0.00,VWS V14.01,2013-01-02 19:01:00,
2013-01-02 11:06:00,24.8,18.0,28.73,ESE,112,0.0,0.0,75,0.00,,---,0.00,VWS V14.01,2013-01-02 19:06:00,
2013-01-02 11:11:00,25.2,18.0,28.73,ENE,68,0.0,0.0,74,0.00,,---,0.00,VWS V14.01,2013-01-02 19:11:00,
2013-01-02 11:16:00,25.3,17.9,28.70,East,90,0.0,0.0,73,0.00,,---,0.00,VWS V14.01,2013-01-02 19:16:00,
2013-01-02 11:21:00,25.5,17.8,28.70,East,90,0.0,0.0,72,0.00,,---,0.00,VWS V14.01,2013-01-02 19:21:00,
2013-01-02 11:26:00,26.1,18.3,28.70,East,90,0.0,0.0,72,0.00,,---,0.00,VWS V14.01,2013-01-02 19:26:00,
2013-01-02 11:31:00,27.0,19.5,28.70,SW,225,0.0,0.0,73,0.00,,---,0.00,VWS V14.01,2013-01-02 19:31:00,
2013-01-02 11:36:00,27.3,19.5,28.70,WNW,292,0.0,0.0,72,0.00,,---,0.00,VWS V14.01,2013-01-02 19:36:00,
2013-01-02 11:41:00,26.6,17.1,28.70,SSE,158,0.0,0.0,67,0.00,,---,0.00,VWS V14.01,2013-01-02 19:41:00,
2013-01-02 11:46:00,27.0,17.8,28.70,SSE,158,0.0,0.0,68,0.00,,---,0.00,VWS V14.01,2013-01-02 19:46:00,
2013-01-02 11:51:00,27.0,18.2,28.70,ENE,68,0.0,0.0,69,0.00,,---,0.00,VWS V14.01,2013-01-02 19:51:00,
2013-01-02 11:56:00,26.8,17.0,28.70,SE,135,0.0,0.0,66,0.00,,---,0.00,VWS V14.01,2013-01-02 19:56:00,
2013-01-02 12:01:00,27.0,16.8,28.70,ESE,112,0.0,0.0,65,0.00,,---,0.00,VWS V14.01,2013-01-02 20:01:00,
2013-01-02 12:07:00,27.0,16.4,28.70,NE,45,0.0,0.0,64,0.00,,---,0.00,VWS V14.01,2013-01-02 20:07:00,
2013-01-02 12:12:00,27.0,15.3,28.70,ENE,68,0.0,0.0,61,0.00,,---,0.00,VWS V14.01,2013-01-02 20:12:00,
2013-01-02 12:17:00,26.8,16.2,28.70,ESE,112,0.0,0.0,64,0.00,,---,0.00,VWS V14.01,2013-01-02 20:17:00,
2013-01-02 12:22:00,27.1,16.6,28.70,SSE,158,0.0,0.0,64,0.00,,---,0.00,VWS V14.01,2013-01-02 20:22:00,
2013-01-02 12:27:00,27.3,17.5,28.70,SSE,158,0.0,0.0,66,0.00,,---,0.00,VWS V14.01,2013-01-02 20:27:00,
2013-01-02 12:32:00,27.7,18.2,28.70,SSE,158,0.0,0.0,67,0.00,,---,0.00,VWS V14.01,2013-01-02 20:32:00,
2013-01-02 12:37:00,28.2,18.3,28.70,ESE,112,0.0,0.0,66,0.00,,---,0.00,VWS V14.01,2013-01-02 20:37:00,
2013-01-02 12:42:00,28.4,18.1,28.70,East,90,0.0,0.0,65,0.00,,---,0.00,VWS V14.01,2013-01-02 20:42:00,
2013-01-02 12:47:00,28.2,17.6,28.67,East,90,0.0,0.0,64,0.00,,---,0.00,VWS V14.01,2013-01-02 20:47:00,
2013-01-02 12:52:00,28.2,17.6,28.67,ESE,112,0.0,0.0,64,0.00,,---,0.00,VWS V14.01,2013-01-02 20:52:00,
2013-01-02 12:57:00,28.2,17.3,28.67,ESE,112,0.0,0.0,63,0.00,,---,0.00,VWS V14.01,2013-01-02 20:57:00,
2013-01-02 13:02:00,28.4,17.1,28.67,ESE,112,0.0,0.0,62,0.00,,---,0.00,VWS V14.01,2013-01-02 21:02:00,
2013-01-02 13:07:00,28.8,17.8,28.67,ESE,112,0.0,0.0,63,0.00,,---,0.00,VWS V14.01,2013-01-02 21:07:00,
2013-01-02 13:12:00,29.1,18.1,28.67,SW,225,0.0,0.0,63,0.00,,---,0.00,VWS V14.01,2013-01-02 21:12:00,
2013-01-02 13:17:00,28.9,17.9,28.67,SW,225,0.0,0.0,63,0.00,,---,0.00,VWS V14.01,2013-01-02 21:17:00,
2013-01-02 13:22:00,29.5,18.5,28.67,SW,225,0.0,0.0,63,0.00,,---,0.00,VWS V14.01,2013-01-02 21:22:00,
2013-01-02 13:27:00,29.7,17.9,28.67,SW,225,0.0,0.0,61,0.00,,---,0.00,VWS V14.01,2013-01-02 21:27:00,
2013-01-02 13:32:00,29.5,17.7,28.67,SW,225,0.0,0.0,61,0.00,,---,0.00,VWS V14.01,2013-01-02 21:32:00,
2013-01-02 13:37:00,29.3,17.5,28.67,ENE,68,0.0,0.0,61,0.00,,---,0.00,VWS V14.01,2013-01-02 21:37:00,
2013-01-02 13:42:00,29.1,17.0,28.67,ESE,112,0.0,0.0,60,0.00,,---,0.00,VWS V14.01,2013-01-02 21:42:00,
2013-01-02 13:47:00,29.1,17.7,28.67,West,270,0.0,0.0,62,0.00,,---,0.00,VWS V14.01,2013-01-02 21:47:00,
2013-01-02 13:52:00,29.1,17.7,28.67,SW,225,0.0,0.0,62,0.00,,---,0.00,VWS V14.01,2013-01-02 21:52:00,
2013-01-02 13:57:00,29.1,18.1,28.67,SW,225,0.0,0.0,63,0.00,,---,0.00,VWS V14.01,2013-01-02 21:57:00,
2013-01-02 14:02:00,28.9,17.6,28.67,SSW,202,0.0,0.0,62,0.00,,---,0.00,VWS V14.01,2013-01-02 22:02:00,
2013-01-02 14:07:00,28.8,17.4,28.67,SSW,202,0.0,0.0,62,0.00,,---,0.00,VWS V14.01,2013-01-02 22:07:00,
2013-01-02 14:12:00,28.8,17.4,28.67,SSW,202,0.0,0.0,62,0.00,,---,0.00,VWS V14.01,2013-01-02 22:12:00,
2013-01-02 14:17:00,28.4,17.8,28.67,SSW,202,0.0,0.0,64,0.00,,---,0.00,VWS V14.01,2013-01-02 22:17:00,
2013-01-02 14:22:00,27.9,17.6,28.67,SSW,202,0.0,0.0,65,0.00,,---,0.00,VWS V14.01,2013-01-02 22:22:00,
2013-01-02 14:27:00,27.9,16.9,28.67,South,180,0.0,0.0,63,0.00,,---,0.00,VWS V14.01,2013-01-02 22:27:00,
2013-01-02 14:32:00,27.5,16.6,28.67,South,180,0.0,0.0,63,0.00,,---,0.00,VWS V14.01,2013-01-02 22:32:00,
2013-01-02 14:37:00,27.5,16.9,28.67,South,180,0.0,0.0,64,0.00,,---,0.00,VWS V14.01,2013-01-02 22:37:00,
2013-01-02 14:42:00,27.5,17.6,28.67,South,180,0.0,0.0,66,0.00,,---,0.00,VWS V14.01,2013-01-02 22:42:00,
2013-01-02 14:47:00,27.0,17.5,28.67,South,180,0.0,0.0,67,0.00,,---,0.00,VWS V14.01,2013-01-02 22:47:00,
2013-01-02 14:52:00,26.6,17.5,28.67,South,180,0.0,0.0,68,0.00,,---,0.00,VWS V14.01,2013-01-02 22:52:00,
2013-01-02 14:57:00,26.2,17.5,28.67,South,180,0.0,0.0,69,0.00,,---,0.00,VWS V14.01,2013-01-02 22:57:00,
2013-01-02 15:02:00,26.1,17.0,28.67,South,180,0.0,0.0,68,0.00,,---,0.00,VWS V14.01,2013-01-02 23:02:00,
2013-01-02 15:07:00,25.5,16.4,28.67,South,180,0.0,0.0,68,0.00,,---,0.00,VWS V14.01,2013-01-02 23:07:00,
2013-01-02 15:12:00,25.5,17.1,28.67,South,180,0.0,0.0,70,0.00,,---,0.00,VWS V14.01,2013-01-02 23:12:00,
2013-01-02 15:17:00,25.3,17.3,28.70,South,180,0.0,0.0,71,0.00,,---,0.00,VWS V14.01,2013-01-02 23:17:00,
2013-01-02 15:22:00,25.0,16.9,28.70,South,180,0.0,0.0,71,0.00,,---,0.00,VWS V14.01,2013-01-02 23:22:00,
2013-01-02 15:27:00,24.6,16.6,28.70,South,180,0.0,0.0,71,0.00,,---,0.00,VWS V14.01,2013-01-02 23:27:00,
2013-01-02 15:32:00,24.4,16.7,28.67,South,180,0.0,0.0,72,0.00,,---,0.00,VWS V14.01,2013-01-02 23:32:00,
2013-01-02 15:37:00,24.3,16.9,28.67,South,180,0.0,0.0,73,0.00,,---,0.00,VWS V14.01,2013-01-02 23:37:00,
2013-01-02 15:42:00,23.9,16.8,28.67,South,180,0.0,0.0,74,0.00,,---,0.00,VWS V14.01,2013-01-02 23:42:00,
2013-01-02 15:47:00,23.7,16.7,28.67,South,180,0.0,0.0,74,0.00,,---,0.00,VWS V14.01,2013-01-02 23:47:00,
2013-01-02 15:52:00,23.5,16.5,28.67,South,180,0.0,0.0,74,0.00,,---,0.00,VWS V14.01,2013-01-02 23:52:00,
2013-01-02 15:57:00,23.4,16.6,28.67,South,180,0.0,0.0,75,0.00,,---,0.00,VWS V14.01,2013-01-02 23:57:00,
2013-01-02 16:02:00,23.2,16.8,28.67,South,180,0.0,0.0,76,0.00,,---,0.00,VWS V14.01,2013-01-03 00:02:00,
2013-01-02 16:07:00,23.0,16.9,28.67,South,180,0.0,0.0,77,0.00,,---,0.00,VWS V14.01,2013-01-03 00:07:00,
2013-01-02 16:13:00,22.8,17.0,28.67,South,180,0.0,0.0,78,0.00,,---,0.00,VWS V14.01,2013-01-03 00:13:00,
2013-01-02 16:18:00,22.8,17.0,28.67,South,180,0.0,0.0,78,0.00,,---,0.00,VWS V14.01,2013-01-03 00:18:00,
2013-01-02 16:23:00,22.6,16.8,28.67,South,180,0.0,0.0,78,0.00,,---,0.00,VWS V14.01,2013-01-03 00:23:00,
2013-01-02 16:28:00,22.6,16.8,28.67,SSW,202,0.0,0.0,78,0.00,,---,0.00,VWS V14.01,2013-01-03 00:28:00,
2013-01-02 16:33:00,22.5,16.6,28.67,SSW,202,0.0,0.0,78,0.00,,---,0.00,VWS V14.01,2013-01-03 00:33:00,
2013-01-02 16:38:00,22.5,16.6,28.67,SSW,202,0.0,0.0,78,0.00,,---,0.00,VWS V14.01,2013-01-03 00:38:00,
2013-01-02 16:43:00,22.3,16.8,28.67,SSW,202,0.0,0.0,79,0.00,,---,0.00,VWS V14.01,2013-01-03 00:43:00,
2013-01-02 16:48:00,22.1,16.6,28.67,SSW,202,0.0,0.0,79,0.00,,---,0.00,VWS V14.01,2013-01-03 00:48:00,
2013-01-02 16:53:00,22.1,16.6,28.67,SSW,202,0.0,0.0,79,0.00,,---,0.00,VWS V14.01,2013-01-03 00:53:00,
2013-01-02 16:58:00,21.9,16.4,28.67,SSW,202,0.0,0.0,79,0.00,,---,0.00,VWS V14.01,2013-01-03 00:58:00,
2013-01-02 17:03:00,21.9,16.4,28.67,SSW,202,0.0,0.0,79,0.00,,---,0.00,VWS V14.01,2013-01-03 01:03:00,
2013-01-02 17:08:00,21.9,16.7,28.67,SSW,202,0.0,0.0,80,0.00,,---,0.00,VWS V14.01,2013-01-03 01:08:00,
2013-01-02 17:13:00,21.9,16.7,28.67,SSW,202,0.0,0.0,80,0.00,,---,0.00,VWS V14.01,2013-01-03 01:13:00,
2013-01-02 17:18:00,21.9,16.7,28.67,SSW,202,0.0,0.0,80,0.00,,---,0.00,VWS V14.01,2013-01-03 01:18:00,
2013-01-02 17:23:00,21.7,16.5,28.67,SSW,202,0.0,0.0,80,0.00,,---,0.00,VWS V14.01,2013-01-03 01:23:00,
2013-01-02 17:28:00,21.7,16.5,28.67,SSW,202,0.0,0.0,80,0.00,,---,0.00,VWS V14.01,2013-01-03 01:28:00,
2013-01-02 17:33:00,21.7,16.5,28.67,SSW,202,0.0,0.0,80,0.00,,---,0.00,VWS V14.01,2013-01-03 01:33:00,
2013-01-02 17:38:00,21.6,16.6,28.67,SSW,202,0.0,0.0,81,0.00,,---,0.00,VWS V14.01,2013-01-03 01:38:00,
2013-01-02 17:43:00,21.6,16.6,28.67,SSW,202,0.0,0.0,81,0.00,,---,0.00,VWS V14.01,2013-01-03 01:43:00,
2013-01-02 17:48:00,21.4,16.5,28.67,SSW,202,0.0,0.0,81,0.00,,---,0.00,VWS V14.01,2013-01-03 01:48:00,
2013-01-02 17:53:00,21.4,16.5,28.67,SSW,202,0.0,0.0,81,0.00,,---,0.00,VWS V14.01,2013-01-03 01:53:00,
2013-01-02 17:58:00,21.4,16.5,28.67,SSW,202,0.0,0.0,81,0.00,,---,0.00,VWS V14.01,2013-01-03 01:58:00,
2013-01-02 18:03:00,21.4,16.8,28.67,SSW,202,0.0,0.0,82,0.00,,---,0.00,VWS V14.01,2013-01-03 02:03:00,
2013-01-02 18:08:00,21.2,16.6,28.67,SSW,202,0.0,0.0,82,0.00,,---,0.00,VWS V14.01,2013-01-03 02:08:00,
2013-01-02 18:13:00,21.2,16.6,28.67,SSW,202,0.0,0.0,82,0.00,,---,0.00,VWS V14.01,2013-01-03 02:13:00,
2013-01-02 18:19:00,21.2,16.6,28.67,SSW,202,0.0,0.0,82,0.00,,---,0.00,VWS V14.01,2013-01-03 02:19:00,
2013-01-02 18:24:00,21.2,16.6,28.67,SSW,202,0.0,0.0,82,0.00,,---,0.00,VWS V14.01,2013-01-03 02:24:00,
2013-01-02 18:29:00,21.2,16.9,28.67,SSW,202,0.0,0.0,83,0.00,,---,0.00,VWS V14.01,2013-01-03 02:29:00,
2013-01-02 18:34:00,21.2,16.9,28.67,SSW,202,0.0,0.0,83,0.00,,---,0.00,VWS V14.01,2013-01-03 02:34:00,
2013-01-02 18:39:00,21.2,16.9,28.67,SSW,202,0.0,0.0,83,0.00,,---,0.00,VWS V14.01,2013-01-03 02:39:00,
2013-01-02 18:44:00,21.0,16.7,28.67,SSW,202,0.0,0.0,83,0.00,,---,0.00,VWS V14.01,2013-01-03 02:44:00,
2013-01-02 18:49:00,21.0,16.7,28.67,SSW,202,0.0,0.0,83,0.00,,---,0.00,VWS V14.01,2013-01-03 02:49:00,
2013-01-02 18:54:00,21.0,16.7,28.67,SSW,202,0.0,0.0,83,0.00,,---,0.00,VWS V14.01,2013-01-03 02:54:00,
2013-01-02 18:59:00,21.0,17.0,28.67,SSW,202,0.0,0.0,84,0.00,,---,0.00,VWS V14.01,2013-01-03 02:59:00,
2013-01-02 19:04:00,21.0,17.0,28.67,SSW,202,0.0,0.0,84,0.00,,---,0.00,VWS V14.01,2013-01-03 03:04:00,
2013-01-02 19:09:00,21.2,17.1,28.67,SSW,202,0.0,0.0,84,0.00,,---,0.00,VWS V14.01,2013-01-03 03:09:00,
2013-01-02 19:14:00,21.0,17.0,28.67,SSW,202,0.0,0.0,84,0.00,,---,0.00,VWS V14.01,2013-01-03 03:14:00,
2013-01-02 19:19:00,21.0,17.0,28.67,SSW,202,0.0,0.0,84,0.00,,---,0.00,VWS V14.01,2013-01-03 03:19:00,
2013-01-02 19:24:00,20.8,16.8,28.67,SSW,202,0.0,0.0,84,0.00,,---,0.00,VWS V14.01,2013-01-03 03:24:00,
2013-01-02 19:29:00,20.8,16.8,28.67,SSW,202,0.0,0.0,84,0.00,,---,0.00,VWS V14.01,2013-01-03 03:29:00,
2013-01-02 19:34:00,20.8,16.8,28.67,SSW,202,0.0,0.0,84,0.00,,---,0.00,VWS V14.01,2013-01-03 03:34:00,
2013-01-02 19:40:00,20.8,16.8,28.67,SSW,202,0.0,0.0,84,0.00,,---,0.00,VWS V14.01,2013-01-03 03:40:00,
2013-01-02 19:45:00,20.8,16.8,28.67,SSW,202,0.0,0.0,84,0.00,,---,0.00,VWS V14.01,2013-01-03 03:45:00,
2013-01-02 19:50:00,20.7,16.6,28.67,SSW,202,0.0,0.0,84,0.00,,---,0.00,VWS V14.01,2013-01-03 03:50:00,
2013-01-02 19:55:00,20.7,16.9,28.67,SSW,202,0.0,0.0,85,0.00,,---,0.00,VWS V14.01,2013-01-03 03:55:00,
2013-01-02 20:00:00,20.7,16.9,28.67,SSW,202,0.0,0.0,85,0.00,,---,0.00,VWS V14.01,2013-01-03 04:00:00,
2013-01-02 20:05:00,20.7,16.9,28.67,SSW,202,0.0,0.0,85,0.00,,---,0.00,VWS V14.01,2013-01-03 04:05:00,
2013-01-02 20:10:00,20.7,16.9,28.67,SSW,202,0.0,0.0,85,0.00,,---,0.00,VWS V14.01,2013-01-03 04:10:00,
2013-01-02 20:15:00,20.7,16.9,28.67,SSW,202,0.0,0.0,85,0.00,,---,0.00,VWS V14.01,2013-01-03 04:15:00,
2013-01-02 20:20:00,20.7,16.9,28.67,SSW,202,0.0,0.0,85,0.00,,---,0.00,VWS V14.01,2013-01-03 04:20:00,
2013-01-02 20:25:00,20.7,16.9,28.67,SSW,202,0.0,0.0,85,0.00,,---,0.00,VWS V14.01,2013-01-03 04:25:00,
2013-01-02 20:30:00,20.7,16.9,28.64,SSW,202,0.0,0.0,85,0.00,,---,0.00,VWS V14.01,2013-01-03 04:30:00,
2013-01-02 20:35:00,20.7,16.9,28.64,SSW,202,0.0,0.0,85,0.00,,---,0.00,VWS V14.01,2013-01-03 04:35:00,
2013-01-02 20:40:00,20.7,16.9,28.64,SSW,202,0.0,0.0,85,0.00,,---,0.00,VWS V14.01,2013-01-03 04:40:00,
2013-01-02 20:45:00,20.5,16.7,28.64,SSW,202,0.0,0.0,85,0.00,,---,0.00,VWS V14.01,2013-01-03 04:45:00,
2013-01-02 20:50:00,20.5,16.7,28.64,NNW,338,0.0,0.0,85,0.00,,---,0.00,VWS V14.01,2013-01-03 04:50:00,
2013-01-02 20:55:00,20.5,16.4,28.64,NNW,338,0.0,0.0,84,0.00,,---,0.00,VWS V14.01,2013-01-03 04:55:00,
2013-01-02 21:00:00,20.5,16.4,28.64,NNW,338,0.0,0.0,84,0.00,,---,0.00,VWS V14.01,2013-01-03 05:00:00,
2013-01-02 21:02:00,20.5,16.4,28.64,NNW,338,0.0,0.0,84,0.00,,---,0.00,VWS V14.01,2013-01-03 05:02:00,
2013-01-02 21:07:00,20.5,16.4,28.64,NNW,338,0.0,0.0,84,0.00,,---,0.00,VWS V14.01,2013-01-03 05:07:00,
2013-01-02 21:12:00,20.3,16.2,28.64,NNW,338,0.0,0.0,84,0.00,,---,0.00,VWS V14.01,2013-01-03 05:12:00,
2013-01-02 21:17:00,20.3,16.2,28.64,NNW,338,0.0,0.0,84,0.00,,---,0.00,VWS V14.01,2013-01-03 05:17:00,
2013-01-02 21:22:00,20.3,16.2,28.64,NNW,338,0.0,0.0,84,0.00,,---,0.00,VWS V14.01,2013-01-03 05:22:00,
2013-01-02 21:27:00,20.3,16.2,28.64,NNW,338,0.0,0.0,84,0.00,,---,0.00,VWS V14.01,2013-01-03 05:27:00,
2013-01-02 21:32:00,20.3,16.2,28.64,NNW,338,0.0,0.0,84,0.00,,---,0.00,VWS V14.01,2013-01-03 05:32:00,
2013-01-02 21:37:00,20.3,16.2,28.64,NNW,338,0.0,0.0,84,0.00,,---,0.00,VWS V14.01,2013-01-03 05:37:00,
2013-01-02 21:42:00,20.1,16.1,28.64,NNW,338,0.0,0.0,84,0.00,,---,0.00,VWS V14.01,2013-01-03 05:42:00,
2013-01-02 21:47:00,20.1,16.1,28.64,NNW,338,0.0,0.0,84,0.00,,---,0.00,VWS V14.01,2013-01-03 05:47:00,
2013-01-02 21:52:00,20.1,16.1,28.64,NNW,338,0.0,0.0,84,0.00,,---,0.00,VWS V14.01,2013-01-03 05:52:00,
2013-01-02 21:57:00,20.1,16.1,28.64,NNW,338,0.0,0.0,84,0.00,,---,0.00,VWS V14.01,2013-01-03 05:57:00,
2013-01-02 22:02:00,19.9,15.9,28.64,NNW,338,0.0,0.0,84,0.00,,---,0.00,VWS V14.01,2013-01-03 06:02:00,
2013-01-02 22:07:00,20.1,16.1,28.64,NNW,338,0.0,0.0,84,0.00,,---,0.00,VWS V14.01,2013-01-03 06:07:00,
2013-01-02 22:12:00,19.9,15.9,28.64,NNW,338,0.0,0.0,84,0.00,,---,0.00,VWS V14.01,2013-01-03 06:12:00,
2013-01-02 22:17:00,19.9,15.9,28.64,NNW,338,0.0,0.0,84,0.00,,---,0.00,VWS V14.01,2013-01-03 06:17:00,
2013-01-02 22:22:00,19.9,16.2,28.64,NNW,338,0.0,0.0,85,0.00,,---,0.00,VWS V14.01,2013-01-03 06:22:00,
2013-01-02 22:27:00,19.9,16.2,28.64,NNW,338,0.0,0.0,85,0.00,,---,0.00,VWS V14.01,2013-01-03 06:27:00,
2013-01-02 22:32:00,19.8,15.7,28.64,NNW,338,0.0,0.0,84,0.00,,---,0.00,VWS V14.01,2013-01-03 06:32:00,
2013-01-02 22:37:00,19.8,15.7,28.64,NNW,338,0.0,0.0,84,0.00,,---,0.00,VWS V14.01,2013-01-03 06:37:00,
2013-01-02 22:42:00,19.8,15.7,28.64,NNW,338,0.0,0.0,84,0.00,,---,0.00,VWS V14.01,2013-01-03 06:42:00,
2013-01-02 22:47:00,19.8,16.0,28.64,NNW,338,0.0,0.0,85,0.00,,---,0.00,VWS V14.01,2013-01-03 06:47:00,
2013-01-02 22:52:00,19.8,16.0,28.64,NNW,338,0.0,0.0,85,0.00,,---,0.00,VWS V14.01,2013-01-03 06:52:00,
2013-01-02 22:57:00,19.8,15.7,28.64,NNW,338,0.0,0.0,84,0.00,,---,0.00,VWS V14.01,2013-01-03 06:57:00,
2013-01-02 23:02:00,19.6,15.5,28.64,NNW,338,0.0,0.0,84,0.00,,---,0.00,VWS V14.01,2013-01-03 07:02:00,
2013-01-02 23:08:00,19.6,15.5,28.64,NNW,338,0.0,0.0,84,0.00,,---,0.00,VWS V14.01,2013-01-03 07:08:00,
2013-01-02 23:13:00,19.6,15.5,28.64,NNW,338,0.0,0.0,84,0.00,,---,0.00,VWS V14.01,2013-01-03 07:13:00,
2013-01-02 23:18:00,19.6,15.5,28.64,NNW,338,0.0,0.0,84,0.00,,---,0.00,VWS V14.01,2013-01-03 07:18:00,
2013-01-02 23:23:00,19.6,15.5,28.64,NNW,338,0.0,0.0,84,0.00,,---,0.00,VWS V14.01,2013-01-03 07:23:00,
2013-01-02 23:28:00,19.6,15.5,28.64,NNW,338,0.0,0.0,84,0.00,,---,0.00,VWS V14.01,2013-01-03 07:28:00,
2013-01-02 23:33:00,19.6,15.5,28.64,NNW,338,0.0,0.0,84,0.00,,---,0.00,VWS V14.01,2013-01-03 07:33:00,
2013-01-02 23:38:00,19.4,15.4,28.64,NNW,338,0.0,0.0,84,0.00,,---,0.00,VWS V14.01,2013-01-03 07:38:00,
2013-01-02 23:43:00,19.4,15.4,28.64,NNW,338,0.0,0.0,84,0.00,,---,0.00,VWS V14.01,2013-01-03 07:43:00,
2013-01-02 23:48:00,19.4,15.4,28.64,NNW,338,0.0,0.0,84,0.00,,---,0.00,VWS V14.01,2013-01-03 07:48:00,
2013-01-02 23:53:00,19.4,15.6,28.64,NNW,338,0.0,0.0,85,0.00,,---,0.00,VWS V14.01,2013-01-03 07:53:00,
2013-01-02 23:58:00,19.4,15.6,28.64,NNW,338,0.0,0.0,85,0.00,,---,0.00,VWS V14.01,2013-01-03 07:58:00,